sensor_id;sensor_type;location;lat;lon;timestamp;pressure;altitude;pressure_sealevel;temperature;humidity
49825;BME280;35714;55.708;37.478;2022-11-06T00:00:56;100596.13;;;1.09;59.61
49825;BME280;35714;55.708;37.478;2022-11-06T00:03:22;100586.25;;;1.10;59.74
49825;BME280;35714;55.708;37.478;2022-11-06T00:05:48;100587.97;;;1.11;59.71
49825;BME280;35714;55.708;37.478;2022-11-06T00:08:35;100587.66;;;1.14;59.86
49825;BME280;35714;55.708;37.478;2022-11-06T00:11:10;100582.63;;;1.11;60.03
49825;BME280;35714;55.708;37.478;2022-11-06T00:13:37;100589.03;;;1.18;59.89
49825;BME280;35714;55.708;37.478;2022-11-06T00:16:05;100588.47;;;1.24;60.03
49825;BME280;35714;55.708;37.478;2022-11-06T00:18:31;100592.25;;;1.31;59.62
49825;BME280;35714;55.708;37.478;2022-11-06T00:20:57;100579.88;;;1.30;59.54
49825;BME280;35714;55.708;37.478;2022-11-06T00:23:23;100580.31;;;1.35;59.33
49825;BME280;35714;55.708;37.478;2022-11-06T00:25:48;100592.66;;;1.36;59.16
49825;BME280;35714;55.708;37.478;2022-11-06T00:28:20;100585.06;;;1.32;59.28
49825;BME280;35714;55.708;37.478;2022-11-06T00:30:45;100587.59;;;1.33;58.93
49825;BME280;35714;55.708;37.478;2022-11-06T00:33:11;100584.78;;;1.35;58.79
49825;BME280;35714;55.708;37.478;2022-11-06T00:35:38;100586.63;;;1.34;59.09
49825;BME280;35714;55.708;37.478;2022-11-06T00:38:04;100590.69;;;1.38;59.08
49825;BME280;35714;55.708;37.478;2022-11-06T00:40:30;100594.63;;;1.34;58.89
49825;BME280;35714;55.708;37.478;2022-11-06T00:42:56;100592.41;;;1.30;58.84
49825;BME280;35714;55.708;37.478;2022-11-06T00:45:23;100591.56;;;1.29;58.99
49825;BME280;35714;55.708;37.478;2022-11-06T00:47:49;100593.22;;;1.30;58.84
49825;BME280;35714;55.708;37.478;2022-11-06T00:50:15;100587.31;;;1.36;59.21
49825;BME280;35714;55.708;37.478;2022-11-06T00:52:42;100595.31;;;1.36;58.77
49825;BME280;35714;55.708;37.478;2022-11-06T00:55:08;100589.59;;;1.31;58.98
49825;BME280;35714;55.708;37.478;2022-11-06T00:57:34;100593.81;;;1.34;59.12
49825;BME280;35714;55.708;37.478;2022-11-06T01:00:00;100582.53;;;1.30;59.12
49825;BME280;35714;55.708;37.478;2022-11-06T01:02:26;100594.94;;;1.31;58.94
49825;BME280;35714;55.708;37.478;2022-11-06T01:04:52;100597.50;;;1.23;58.94
49825;BME280;35714;55.708;37.478;2022-11-06T01:07:17;100610.13;;;1.21;59.02
49825;BME280;35714;55.708;37.478;2022-11-06T01:09:43;100610.41;;;1.18;59.27
49825;BME280;35714;55.708;37.478;2022-11-06T01:12:09;100609.59;;;1.17;59.32
49825;BME280;35714;55.708;37.478;2022-11-06T01:14:37;100609.16;;;1.22;59.16
49825;BME280;35714;55.708;37.478;2022-11-06T01:17:03;100610.41;;;1.28;58.83
49825;BME280;35714;55.708;37.478;2022-11-06T01:19:29;100607.47;;;1.21;58.69
49825;BME280;35714;55.708;37.478;2022-11-06T01:21:55;100603.44;;;1.07;58.99
49825;BME280;35714;55.708;37.478;2022-11-06T01:24:24;100620.84;;;1.11;59.13
49825;BME280;35714;55.708;37.478;2022-11-06T01:26:51;100615.66;;;1.10;58.84
49825;BME280;35714;55.708;37.478;2022-11-06T01:29:18;100606.66;;;1.11;58.82
49825;BME280;35714;55.708;37.478;2022-11-06T01:31:45;100606.53;;;1.02;58.74
49825;BME280;35714;55.708;37.478;2022-11-06T01:34:12;100610.72;;;1.05;59.00
49825;BME280;35714;55.708;37.478;2022-11-06T01:36:38;100615.81;;;0.98;59.30
49825;BME280;35714;55.708;37.478;2022-11-06T01:39:05;100608.22;;;0.94;59.28
49825;BME280;35714;55.708;37.478;2022-11-06T01:41:35;100612.47;;;0.96;59.25
49825;BME280;35714;55.708;37.478;2022-11-06T01:46:48;100584.47;;;0.90;58.94
49825;BME280;35714;55.708;37.478;2022-11-06T01:49:15;100592.75;;;0.97;58.78
49825;BME280;35714;55.708;37.478;2022-11-06T01:51:48;100589.41;;;0.95;58.79
49825;BME280;35714;55.708;37.478;2022-11-06T01:54:15;100589.41;;;0.95;58.64
49825;BME280;35714;55.708;37.478;2022-11-06T01:56:43;100579.69;;;0.94;58.79
49825;BME280;35714;55.708;37.478;2022-11-06T01:59:14;100585.03;;;0.94;58.77
49825;BME280;35714;55.708;37.478;2022-11-06T02:01:40;100577.59;;;0.98;58.86
49825;BME280;35714;55.708;37.478;2022-11-06T02:06:47;100571.41;;;0.97;58.64
49825;BME280;35714;55.708;37.478;2022-11-06T02:09:14;100571.81;;;1.02;58.81
49825;BME280;35714;55.708;37.478;2022-11-06T02:11:43;100588.94;;;1.10;58.20
49825;BME280;35714;55.708;37.478;2022-11-06T02:14:31;100581.78;;;1.00;58.14
49825;BME280;35714;55.708;37.478;2022-11-06T02:17:16;100593.88;;;1.04;58.32
49825;BME280;35714;55.708;37.478;2022-11-06T02:27:42;100592.78;;;0.87;57.91
49825;BME280;35714;55.708;37.478;2022-11-06T02:30:11;100589.16;;;0.79;58.41
49825;BME280;35714;55.708;37.478;2022-11-06T02:32:47;100589.56;;;0.84;58.28
49825;BME280;35714;55.708;37.478;2022-11-06T02:38:13;100582.53;;;0.83;58.00
49825;BME280;35714;55.708;37.478;2022-11-06T02:40:48;100580.72;;;0.74;57.97
49825;BME280;35714;55.708;37.478;2022-11-06T02:43:15;100590.69;;;0.71;57.80
49825;BME280;35714;55.708;37.478;2022-11-06T02:46:10;100592.53;;;0.71;57.95
49825;BME280;35714;55.708;37.478;2022-11-06T02:48:41;100586.91;;;0.64;57.93
49825;BME280;35714;55.708;37.478;2022-11-06T02:51:12;100589.44;;;0.56;58.04
49825;BME280;35714;55.708;37.478;2022-11-06T02:53:41;100588.59;;;0.56;57.99
49825;BME280;35714;55.708;37.478;2022-11-06T02:56:11;100589.44;;;0.56;58.24
49825;BME280;35714;55.708;37.478;2022-11-06T02:58:52;100582.84;;;0.60;57.93
49825;BME280;35714;55.708;37.478;2022-11-06T03:01:31;100585.25;;;0.53;58.09
49825;BME280;35714;55.708;37.478;2022-11-06T03:04:03;100581.03;;;0.51;58.03
49825;BME280;35714;55.708;37.478;2022-11-06T03:06:53;100578.75;;;0.56;58.05
49825;BME280;35714;55.708;37.478;2022-11-06T03:09:28;100578.75;;;0.56;58.13
49825;BME280;35714;55.708;37.478;2022-11-06T03:12:00;100572.88;;;0.52;57.96
49825;BME280;35714;55.708;37.478;2022-11-06T03:14:33;100583.97;;;0.58;58.15
49825;BME280;35714;55.708;37.478;2022-11-06T03:17:17;100577.38;;;0.62;58.19
49825;BME280;35714;55.708;37.478;2022-11-06T03:19:53;100574.28;;;0.66;58.14
49825;BME280;35714;55.708;37.478;2022-11-06T03:25:05;100577.63;;;0.68;57.63
49825;BME280;35714;55.708;37.478;2022-11-06T03:30:20;100583.81;;;0.69;57.41
49825;BME280;35714;55.708;37.478;2022-11-06T03:32:47;100577.63;;;0.68;57.73
49825;BME280;35714;55.708;37.478;2022-11-06T03:35:43;100569.34;;;0.71;57.87
49825;BME280;35714;55.708;37.478;2022-11-06T03:38:18;100561.06;;;0.75;57.76
49825;BME280;35714;55.708;37.478;2022-11-06T03:40:49;100570.31;;;0.70;57.79
49825;BME280;35714;55.708;37.478;2022-11-06T03:43:19;100566.97;;;0.68;57.85
49825;BME280;35714;55.708;37.478;2022-11-06T03:45:48;100569.50;;;0.70;57.97
49825;BME280;35714;55.708;37.478;2022-11-06T03:48:22;100572.00;;;0.71;57.86
49825;BME280;35714;55.708;37.478;2022-11-06T03:50:53;100563.31;;;0.69;58.04
49825;BME280;35714;55.708;37.478;2022-11-06T03:53:32;100567.25;;;0.65;57.97
49825;BME280;35714;55.708;37.478;2022-11-06T03:56:09;100557.41;;;0.56;58.16
49825;BME280;35714;55.708;37.478;2022-11-06T03:58:39;100570.34;;;0.61;58.23
49825;BME280;35714;55.708;37.478;2022-11-06T04:01:08;100559.50;;;0.62;58.13
49825;BME280;35714;55.708;37.478;2022-11-06T04:03:39;100561.34;;;0.62;57.97
49825;BME280;35714;55.708;37.478;2022-11-06T04:06:15;100561.91;;;0.65;58.26
49825;BME280;35714;55.708;37.478;2022-11-06T04:08:43;100558.81;;;0.60;57.91
49825;BME280;35714;55.708;37.478;2022-11-06T04:11:28;100566.44;;;0.55;57.93
49825;BME280;35714;55.708;37.478;2022-11-06T04:14:15;100567.97;;;0.48;58.25
49825;BME280;35714;55.708;37.478;2022-11-06T04:16:49;100558.53;;;0.44;58.08
49825;BME280;35714;55.708;37.478;2022-11-06T04:19:18;100566.13;;;0.39;58.23
49825;BME280;35714;55.708;37.478;2022-11-06T04:30:15;100561.38;;;0.23;58.97
49825;BME280;35714;55.708;37.478;2022-11-06T04:33:24;100566.00;;;0.30;59.20
49825;BME280;35714;55.708;37.478;2022-11-06T04:36:08;100565.00;;;0.31;59.39
49825;BME280;35714;55.708;37.478;2022-11-06T04:38:43;100575.38;;;0.34;59.11
49825;BME280;35714;55.708;37.478;2022-11-06T04:41:43;100574.00;;;0.40;59.16
49825;BME280;35714;55.708;37.478;2022-11-06T04:46:48;100575.94;;;0.28;59.60
49825;BME280;35714;55.708;37.478;2022-11-06T04:49:15;100573.16;;;0.20;59.74
49825;BME280;35714;55.708;37.478;2022-11-06T04:51:42;100579.91;;;0.24;59.77
49825;BME280;35714;55.708;37.478;2022-11-06T04:54:10;100590.56;;;0.24;59.90
49825;BME280;35714;55.708;37.478;2022-11-06T04:56:37;100586.94;;;0.25;60.07
49825;BME280;35714;55.708;37.478;2022-11-06T04:59:03;100582.69;;;0.23;60.15
49825;BME280;35714;55.708;37.478;2022-11-06T05:01:30;100579.91;;;0.24;60.10
49825;BME280;35714;55.708;37.478;2022-11-06T05:03:55;100584.25;;;0.25;59.95
49825;BME280;35714;55.708;37.478;2022-11-06T05:06:21;100581.59;;;0.25;60.13
49825;BME280;35714;55.708;37.478;2022-11-06T05:08:47;100588.19;;;0.31;59.92
49825;BME280;35714;55.708;37.478;2022-11-06T05:11:13;100588.59;;;0.26;60.08
49825;BME280;35714;55.708;37.478;2022-11-06T05:13:38;100588.31;;;0.20;60.23
49825;BME280;35714;55.708;37.478;2022-11-06T05:16:04;100585.50;;;0.21;60.33
49825;BME280;35714;55.708;37.478;2022-11-06T05:18:31;100586.63;;;0.18;60.47
49825;BME280;35714;55.708;37.478;2022-11-06T05:21:00;100593.38;;;0.23;60.40
49825;BME280;35714;55.708;37.478;2022-11-06T05:23:45;100583.81;;;0.30;60.43
49825;BME280;35714;55.708;37.478;2022-11-06T05:26:11;100588.59;;;0.26;60.30
49825;BME280;35714;55.708;37.478;2022-11-06T05:28:37;100581.00;;;0.22;60.44
49825;BME280;35714;55.708;37.478;2022-11-06T05:31:03;100588.59;;;0.16;60.72
49825;BME280;35714;55.708;37.478;2022-11-06T05:33:28;100581.00;;;0.12;60.96
49825;BME280;35714;55.708;37.478;2022-11-06T05:35:54;100578.47;;;0.20;61.07
49825;BME280;35714;55.708;37.478;2022-11-06T05:38:20;100588.03;;;0.23;60.93
49825;BME280;35714;55.708;37.478;2022-11-06T05:40:45;100575.25;;;0.26;60.96
49825;BME280;35714;55.708;37.478;2022-11-06T05:43:11;100573.28;;;0.28;60.70
49825;BME280;35714;55.708;37.478;2022-11-06T05:45:37;100572.88;;;0.33;60.69
49825;BME280;35714;55.708;37.478;2022-11-06T05:48:03;100569.09;;;0.35;60.82
49825;BME280;35714;55.708;37.478;2022-11-06T05:50:29;100560.53;;;0.42;60.91
49825;BME280;35714;55.708;37.478;2022-11-06T05:52:55;100562.34;;;0.51;60.19
49825;BME280;35714;55.708;37.478;2022-11-06T05:55:21;100556.19;;;0.50;60.31
49825;BME280;35714;55.708;37.478;2022-11-06T05:57:46;100552.38;;;0.53;60.09
49825;BME280;35714;55.708;37.478;2022-11-06T06:00:13;100560.78;;;0.58;60.01
49825;BME280;35714;55.708;37.478;2022-11-06T06:02:39;100563.03;;;0.63;60.01
49825;BME280;35714;55.708;37.478;2022-11-06T06:05:05;100554.88;;;0.64;59.92
49825;BME280;35714;55.708;37.478;2022-11-06T06:07:32;100542.78;;;0.70;59.82
49825;BME280;35714;55.708;37.478;2022-11-06T06:09:57;100550.09;;;0.78;59.40
49825;BME280;35714;55.708;37.478;2022-11-06T06:12:23;100554.59;;;0.77;59.38
49825;BME280;35714;55.708;37.478;2022-11-06T06:14:51;100550.91;;;0.78;59.18
49825;BME280;35714;55.708;37.478;2022-11-06T06:17:17;100549.41;;;0.76;59.45
49825;BME280;35714;55.708;37.478;2022-11-06T06:19:45;100551.50;;;0.82;59.17
49825;BME280;35714;55.708;37.478;2022-11-06T06:22:11;100559.91;;;0.87;58.91
49825;BME280;35714;55.708;37.478;2022-11-06T06:24:37;100558.19;;;0.96;58.63
49825;BME280;35714;55.708;37.478;2022-11-06T06:27:03;100557.63;;;0.92;58.97
49825;BME280;35714;55.708;37.478;2022-11-06T06:29:29;100554.00;;;0.93;58.90
49825;BME280;35714;55.708;37.478;2022-11-06T06:31:54;100544.97;;;0.94;58.82
49825;BME280;35714;55.708;37.478;2022-11-06T06:34:20;100545.41;;;0.99;59.06
49825;BME280;35714;55.708;37.478;2022-11-06T06:36:52;100552.84;;;1.05;59.00
49825;BME280;35714;55.708;37.478;2022-11-06T06:39:19;100561.25;;;1.11;58.71
49825;BME280;35714;55.708;37.478;2022-11-06T06:41:45;100550.28;;;1.14;58.75
49825;BME280;35714;55.708;37.478;2022-11-06T06:44:11;100560.66;;;1.17;58.12
49825;BME280;35714;55.708;37.478;2022-11-06T06:46:37;100548.22;;;0.98;58.29
49825;BME280;35714;55.708;37.478;2022-11-06T06:49:03;100560.03;;;0.95;58.54
49825;BME280;35714;55.708;37.478;2022-11-06T06:51:28;100566.63;;;0.91;58.31
49825;BME280;35714;55.708;37.478;2022-11-06T06:53:54;100564.41;;;0.77;58.44
49825;BME280;35714;55.708;37.478;2022-11-06T06:56:20;100569.88;;;0.75;58.92
49825;BME280;35714;55.708;37.478;2022-11-06T06:58:46;100567.50;;;0.82;58.34
49825;BME280;35714;55.708;37.478;2022-11-06T07:01:12;100570.31;;;0.70;58.61
49825;BME280;35714;55.708;37.478;2022-11-06T07:03:38;100557.00;;;0.61;58.85
49825;BME280;35714;55.708;37.478;2022-11-06T07:06:05;100560.22;;;0.54;59.35
49825;BME280;35714;55.708;37.478;2022-11-06T07:08:32;100561.66;;;0.49;59.77
49825;BME280;35714;55.708;37.478;2022-11-06T07:11:04;100563.03;;;0.53;60.01
49825;BME280;35714;55.708;37.478;2022-11-06T07:13:31;100559.94;;;0.58;60.25
49825;BME280;35714;55.708;37.478;2022-11-06T07:15:56;100559.50;;;0.62;60.05
49825;BME280;35714;55.708;37.478;2022-11-06T07:18:23;100557.84;;;0.71;59.76
49825;BME280;35714;55.708;37.478;2022-11-06T07:20:50;100554.88;;;0.64;59.82
49825;BME280;35714;55.708;37.478;2022-11-06T07:23:16;100566.13;;;0.68;60.06
49825;BME280;35714;55.708;37.478;2022-11-06T07:25:41;100564.41;;;0.77;59.83
49825;BME280;35714;55.708;37.478;2022-11-06T07:28:07;100565.00;;;0.80;59.98
49825;BME280;35714;55.708;37.478;2022-11-06T07:30:34;100569.19;;;0.83;59.72
49825;BME280;35714;55.708;37.478;2022-11-06T07:33:01;100565.25;;;0.87;59.80
49825;BME280;35714;55.708;37.478;2022-11-06T07:35:27;100562.41;;;0.98;59.69
49825;BME280;35714;55.708;37.478;2022-11-06T07:37:53;100562.94;;;1.02;59.42
49825;BME280;35714;55.708;37.478;2022-11-06T07:40:19;100554.50;;;1.06;59.32
49825;BME280;35714;55.708;37.478;2022-11-06T07:42:45;100557.91;;;1.08;59.40
49825;BME280;35714;55.708;37.478;2022-11-06T07:45:15;100555.31;;;1.17;59.47
49825;BME280;35714;55.708;37.478;2022-11-06T07:47:41;100550.78;;;1.27;59.01
49825;BME280;35714;55.708;37.478;2022-11-06T07:50:06;100547.41;;;1.25;58.68
49825;BME280;35714;55.708;37.478;2022-11-06T07:52:32;100538.44;;;1.26;58.51
49825;BME280;35714;55.708;37.478;2022-11-06T07:54:59;100545.72;;;1.24;58.88
49825;BME280;35714;55.708;37.478;2022-11-06T07:57:24;100539.00;;;1.20;58.91
49825;BME280;35714;55.708;37.478;2022-11-06T07:59:50;100535.91;;;1.15;58.84
49825;BME280;35714;55.708;37.478;2022-11-06T08:02:16;100538.72;;;1.13;58.57
49825;BME280;35714;55.708;37.478;2022-11-06T08:04:42;100547.31;;;1.17;58.81
49825;BME280;35714;55.708;37.478;2022-11-06T08:07:08;100545.44;;;1.27;58.55
49825;BME280;35714;55.708;37.478;2022-11-06T08:09:34;100536.44;;;1.28;57.88
49825;BME280;35714;55.708;37.478;2022-11-06T08:12:00;100541.69;;;1.20;58.16
49825;BME280;35714;55.708;37.478;2022-11-06T08:14:26;100541.97;;;1.17;58.56
49825;BME280;35714;55.708;37.478;2022-11-06T08:16:51;100545.03;;;1.22;58.68
49825;BME280;35714;55.708;37.478;2022-11-06T08:19:17;100557.53;;;1.31;58.12
49825;BME280;35714;55.708;37.478;2022-11-06T08:21:43;100549.78;;;1.28;58.13
49825;BME280;35714;55.708;37.478;2022-11-06T08:24:09;100559.81;;;1.26;57.95
49825;BME280;35714;55.708;37.478;2022-11-06T08:26:34;100550.78;;;1.27;57.88
49825;BME280;35714;55.708;37.478;2022-11-06T08:29:00;100553.06;;;1.22;57.98
49825;BME280;35714;55.708;37.478;2022-11-06T08:31:26;100550.28;;;1.14;58.52
49825;BME280;35714;55.708;37.478;2022-11-06T08:33:52;100546.06;;;1.11;58.38
49825;BME280;35714;55.708;37.478;2022-11-06T08:36:18;100552.56;;;1.08;58.60
49825;BME280;35714;55.708;37.478;2022-11-06T08:38:46;100552.22;;;1.12;58.33
49825;BME280;35714;55.708;37.478;2022-11-06T08:41:12;100549.16;;;1.06;58.82
49825;BME280;35714;55.708;37.478;2022-11-06T08:43:38;100547.22;;;1.08;59.08
49825;BME280;35714;55.708;37.478;2022-11-06T08:46:06;100551.94;;;1.15;58.97
49825;BME280;35714;55.708;37.478;2022-11-06T08:48:33;100544.34;;;1.20;58.71
49825;BME280;35714;55.708;37.478;2022-11-06T08:50:59;100545.72;;;1.24;58.99
49825;BME280;35714;55.708;37.478;2022-11-06T08:53:25;100546.00;;;1.31;58.27
49825;BME280;35714;55.708;37.478;2022-11-06T08:55:52;100544.91;;;1.23;58.32
49825;BME280;35714;55.708;37.478;2022-11-06T08:58:18;100545.63;;;1.16;58.47
49825;BME280;35714;55.708;37.478;2022-11-06T09:00:44;100528.91;;;1.14;58.20
49825;BME280;35714;55.708;37.478;2022-11-06T09:03:12;100536.78;;;1.15;58.38
49825;BME280;35714;55.708;37.478;2022-11-06T09:05:41;100538.19;;;1.10;58.47
49825;BME280;35714;55.708;37.478;2022-11-06T09:08:09;100526.25;;;1.14;58.52
49825;BME280;35714;55.708;37.478;2022-11-06T09:10:36;100534.16;;;1.33;57.97
49825;BME280;35714;55.708;37.478;2022-11-06T09:13:03;100532.19;;;1.35;58.24
49825;BME280;35714;55.708;37.478;2022-11-06T09:15:29;100527.94;;;1.42;57.90
49825;BME280;35714;55.708;37.478;2022-11-06T09:17:55;100517.78;;;1.46;57.80
49825;BME280;35714;55.708;37.478;2022-11-06T09:20:22;100523.38;;;1.53;57.37
49825;BME280;35714;55.708;37.478;2022-11-06T09:22:49;100523.13;;;1.46;57.58
49825;BME280;35714;55.708;37.478;2022-11-06T09:25:15;100517.25;;;1.42;57.51
49825;BME280;35714;55.708;37.478;2022-11-06T09:27:45;100530.22;;;1.37;57.81
49825;BME280;35714;55.708;37.478;2022-11-06T09:30:13;100520.41;;;1.28;57.87
49825;BME280;35714;55.708;37.478;2022-11-06T09:32:51;100517.06;;;1.26;57.98
49825;BME280;35714;55.708;37.478;2022-11-06T09:35:18;100508.88;;;1.28;57.84
49825;BME280;35714;55.708;37.478;2022-11-06T09:37:44;100503.78;;;1.34;57.92
49825;BME280;35714;55.708;37.478;2022-11-06T09:40:33;100509.00;;;1.54;57.78
49825;BME280;35714;55.708;37.478;2022-11-06T09:43:32;100506.75;;;1.59;57.41
49825;BME280;35714;55.708;37.478;2022-11-06T09:46:21;100491.31;;;1.53;57.05
49825;BME280;35714;55.708;37.478;2022-11-06T09:49:02;100492.88;;;1.46;57.29
49825;BME280;35714;55.708;37.478;2022-11-06T09:54:18;100488.81;;;1.41;57.43
49825;BME280;35714;55.708;37.478;2022-11-06T09:56:49;100485.16;;;1.42;57.92
49825;BME280;35714;55.708;37.478;2022-11-06T09:59:19;100499.94;;;1.47;57.36
49825;BME280;35714;55.708;37.478;2022-11-06T10:01:54;100491.63;;;1.50;57.44
49825;BME280;35714;55.708;37.478;2022-11-06T10:06:55;100483.69;;;1.58;57.09
49825;BME280;35714;55.708;37.478;2022-11-06T10:09:21;100486.72;;;1.63;56.58
49825;BME280;35714;55.708;37.478;2022-11-06T10:17:53;100486.94;;;1.34;57.59
49825;BME280;35714;55.708;37.478;2022-11-06T10:23:58;100493.69;;;1.28;57.56
49825;BME280;35714;55.708;37.478;2022-11-06T10:26:35;100489.75;;;1.32;57.61
49825;BME280;35714;55.708;37.478;2022-11-06T10:32:29;100480.19;;;1.30;57.74
49825;BME280;35714;55.708;37.478;2022-11-06T10:35:00;100485.81;;;1.26;57.51
49825;BME280;35714;55.708;37.478;2022-11-06T10:37:44;100478.78;;;1.25;57.30
49825;BME280;35714;55.708;37.478;2022-11-06T10:40:17;100483.00;;;1.28;57.76
49825;BME280;35714;55.708;37.478;2022-11-06T10:42:45;100486.78;;;1.35;57.63
49825;BME280;35714;55.708;37.478;2022-11-06T10:45:15;100482.50;;;1.42;57.26
49825;BME280;35714;55.708;37.478;2022-11-06T10:47:50;100482.34;;;1.44;56.78
49825;BME280;35714;55.708;37.478;2022-11-06T10:50:19;100487.06;;;1.32;57.16
49825;BME280;35714;55.708;37.478;2022-11-06T10:52:59;100490.72;;;1.31;57.77
49825;BME280;35714;55.708;37.478;2022-11-06T10:58:22;100483.09;;;1.36;57.87
49825;BME280;35714;55.708;37.478;2022-11-06T11:00:49;100480.50;;;1.44;57.73
49825;BME280;35714;55.708;37.478;2022-11-06T11:03:27;100479.72;;;1.62;57.33
49825;BME280;35714;55.708;37.478;2022-11-06T11:05:54;100480.31;;;1.56;57.19
49825;BME280;35714;55.708;37.478;2022-11-06T11:13:49;100470.31;;;1.30;57.56
49825;BME280;35714;55.708;37.478;2022-11-06T11:16:38;100452.03;;;1.35;57.73
49825;BME280;35714;55.708;37.478;2022-11-06T11:19:39;100450.44;;;1.42;57.29
49825;BME280;35714;55.708;37.478;2022-11-06T11:24:59;100455.41;;;1.37;57.78
49825;BME280;35714;55.708;37.478;2022-11-06T11:27:27;100453.09;;;1.42;57.63
49825;BME280;35714;55.708;37.478;2022-11-06T11:29:54;100456.47;;;1.44;57.41
49825;BME280;35714;55.708;37.478;2022-11-06T11:32:20;100451.75;;;1.38;57.11
49825;BME280;35714;55.708;37.478;2022-11-06T11:34:49;100448.34;;;1.36;57.00
49825;BME280;35714;55.708;37.478;2022-11-06T11:37:28;100443.91;;;1.27;57.41
49825;BME280;35714;55.708;37.478;2022-11-06T11:39:55;100449.56;;;1.24;57.63
49825;BME280;35714;55.708;37.478;2022-11-06T11:42:31;100449.84;;;1.21;57.74
49825;BME280;35714;55.708;37.478;2022-11-06T11:47:37;100436.78;;;1.18;57.95
49825;BME280;35714;55.708;37.478;2022-11-06T11:52:45;100446.78;;;1.43;57.49
49825;BME280;35714;55.708;37.478;2022-11-06T11:55:16;100436.63;;;1.47;57.41
49825;BME280;35714;55.708;37.478;2022-11-06T11:57:49;100439.59;;;1.44;57.38
49825;BME280;35714;55.708;37.478;2022-11-06T12:00:18;100445.09;;;1.42;57.02
49825;BME280;35714;55.708;37.478;2022-11-06T12:02:57;100441.44;;;1.43;56.88
49825;BME280;35714;55.708;37.478;2022-11-06T12:05:32;100426.97;;;1.36;57.24
49825;BME280;35714;55.708;37.478;2022-11-06T12:07:59;100427.28;;;1.33;57.21
49825;BME280;35714;55.708;37.478;2022-11-06T12:10:38;100425.84;;;1.39;57.47
49825;BME280;35714;55.708;37.478;2022-11-06T12:13:21;100423.56;;;1.44;57.20
49825;BME280;35714;55.708;37.478;2022-11-06T12:16:03;100442.13;;;1.46;57.26
49825;BME280;35714;55.708;37.478;2022-11-06T12:18:45;100428.59;;;1.47;56.55
49825;BME280;35714;55.708;37.478;2022-11-06T12:21:32;100421.34;;;1.39;56.83
49825;BME280;35714;55.708;37.478;2022-11-06T12:24:09;100423.69;;;1.24;56.97
49825;BME280;35714;55.708;37.478;2022-11-06T12:34:34;100420.66;;;1.10;58.07
49825;BME280;35714;55.708;37.478;2022-11-06T12:37:22;100402.06;;;1.18;58.13
49825;BME280;35714;55.708;37.478;2022-11-06T12:39:56;100402.31;;;1.24;57.99
49825;BME280;35714;55.708;37.478;2022-11-06T12:42:28;100407.53;;;1.44;57.45
49825;BME280;35714;55.708;37.478;2022-11-06T12:44:55;100405.97;;;1.41;57.72
49825;BME280;35714;55.708;37.478;2022-11-06T12:47:47;100403.41;;;1.50;57.62
49825;BME280;35714;55.708;37.478;2022-11-06T12:50:36;100392.03;;;1.48;57.18
49825;BME280;35714;55.708;37.478;2022-11-06T12:56:14;100395.94;;;1.35;56.87
49825;BME280;35714;55.708;37.478;2022-11-06T13:01:45;100396.47;;;1.11;57.93
49825;BME280;35714;55.708;37.478;2022-11-06T13:04:25;100403.56;;;1.02;57.98
49825;BME280;35714;55.708;37.478;2022-11-06T13:18:24;100410.34;;;0.97;58.72
49825;BME280;35714;55.708;37.478;2022-11-06T13:29:54;100408.63;;;1.05;58.97
49825;BME280;35714;55.708;37.478;2022-11-06T13:32:23;100403.28;;;1.05;58.90
49825;BME280;35714;55.708;37.478;2022-11-06T13:34:51;100397.63;;;1.08;58.92
49825;BME280;35714;55.708;37.478;2022-11-06T13:37:42;100400.69;;;1.14;58.91
49825;BME280;35714;55.708;37.478;2022-11-06T13:40:18;100391.38;;;1.18;58.73
49825;BME280;35714;55.708;37.478;2022-11-06T13:48:49;100396.41;;;1.21;58.66
49825;BME280;35714;55.708;37.478;2022-11-06T14:05:19;100395.34;;;1.14;59.04
49825;BME280;35714;55.708;37.478;2022-11-06T14:07:49;100393.97;;;1.10;59.05
49825;BME280;35714;55.708;37.478;2022-11-06T14:10:21;100397.06;;;1.05;59.10
49825;BME280;35714;55.708;37.478;2022-11-06T14:12:48;100396.53;;;1.01;59.18
49825;BME280;35714;55.708;37.478;2022-11-06T14:17:57;100395.00;;;0.99;59.46
49825;BME280;35714;55.708;37.478;2022-11-06T14:20:36;100399.91;;;1.03;59.52
49825;BME280;35714;55.708;37.478;2022-11-06T14:28:32;100392.31;;;1.08;59.33
49825;BME280;35714;55.708;37.478;2022-11-06T14:30:58;100389.22;;;1.03;59.62
49825;BME280;35714;55.708;37.478;2022-11-06T14:33:55;100387.56;;;1.02;59.56
49825;BME280;35714;55.708;37.478;2022-11-06T14:36:26;100388.16;;;0.96;59.65
49825;BME280;35714;55.708;37.478;2022-11-06T14:38:52;100374.78;;;0.96;59.98
49825;BME280;35714;55.708;37.478;2022-11-06T14:44:02;100371.47;;;1.12;59.73
49825;BME280;35714;55.708;37.478;2022-11-06T14:46:29;100381.69;;;1.17;59.51
49825;BME280;35714;55.708;37.478;2022-11-06T14:52:11;100369.03;;;1.19;59.30
49825;BME280;35714;55.708;37.478;2022-11-06T14:54:40;100360.47;;;1.15;59.56
49825;BME280;35714;55.708;37.478;2022-11-06T14:57:15;100364.31;;;1.31;59.10
49825;BME280;35714;55.708;37.478;2022-11-06T14:59:42;100349.19;;;1.21;59.19
49825;BME280;35714;55.708;37.478;2022-11-06T15:02:34;100356.50;;;1.19;59.27
49825;BME280;35714;55.708;37.478;2022-11-06T15:05:07;100350.31;;;1.19;59.32
49825;BME280;35714;55.708;37.478;2022-11-06T15:10:03;100336.38;;;1.07;59.58
49825;BME280;35714;55.708;37.478;2022-11-06T15:13:02;100347.56;;;1.11;59.89
49825;BME280;35714;55.708;37.478;2022-11-06T15:15:29;100337.34;;;1.06;59.91
49825;BME280;35714;55.708;37.478;2022-11-06T15:17:57;100346.19;;;1.06;59.90
49825;BME280;35714;55.708;37.478;2022-11-06T15:20:32;100342.63;;;1.16;59.89
49825;BME280;35714;55.708;37.478;2022-11-06T15:23:12;100350.94;;;1.13;60.08
49825;BME280;35714;55.708;37.478;2022-11-06T15:25:46;100336.28;;;1.17;60.10